Time;durP1;ratioP1;P1;durP2;ratioP2;P2;SDS_P1;SDS_P2;PMS_P1;PMS_P2;Temp;Humidity;BMP_temperature;BMP_pressure;BME280_temperature;BME280_humidity;BME280_pressure;Samples;Min_cycle;Max_cycle;Signal;HPM_P1;HPM_P2
2022/07/19 00:00:20;;;;;;;;;;;24.90;58.00;;;;;;4390187;32;41853;-80
2022/07/19 00:02:48;;;;;;;;;;;24.90;58.20;;;;;;4389868;32;43860;-79
2022/07/19 00:05:15;;;;;;;;;;;24.90;58.30;;;;;;4390231;32;46029;-79
2022/07/19 00:07:45;;;;;;;;;;;24.80;58.40;;;;;;4388391;32;42621;-79
2022/07/19 00:10:13;;;;;;;;;;;24.90;58.50;;;;;;4389912;32;44278;-78
2022/07/19 00:12:43;;;;;;;;;;;24.80;58.60;;;;;;4388963;32;44683;-78
2022/07/19 00:15:11;;;;;;;;;;;24.80;58.60;;;;;;4388958;32;43138;-79
2022/07/19 00:17:43;;;;;;;;;;;24.80;58.90;;;;;;4388514;32;42961;-78
2022/07/19 00:20:11;;;;;;;;;;;24.80;58.50;;;;;;4389719;32;42997;-79
2022/07/19 00:22:41;;;;;;;;;;;24.80;58.80;;;;;;4389703;32;43646;-79
2022/07/19 00:25:08;;;;;;;;;;;24.80;58.90;;;;;;4388799;32;42588;-80
2022/07/19 00:27:36;;;;;;;;;;;24.80;59.00;;;;;;4389977;32;43826;-80
2022/07/19 00:30:05;;;;;;;;;;;24.80;58.90;;;;;;4389949;32;43865;-80
2022/07/19 00:32:35;;;;;;;;;;;24.70;59.10;;;;;;4388570;32;43663;-80
2022/07/19 00:35:09;;;;;;;;;;;24.80;59.40;;;;;;4389810;32;42906;-78
2022/07/19 00:37:39;;;;;;;;;;;24.70;59.30;;;;;;4389744;32;44184;-81
2022/07/19 00:40:15;;;;;;;;;;;24.70;59.30;;;;;;4389051;32;44187;-80
2022/07/19 00:42:42;;;;;;;;;;;24.70;59.30;;;;;;4389419;32;43004;-79
2022/07/19 00:45:10;;;;;;;;;;;24.70;59.20;;;;;;4389741;32;42520;-79
2022/07/19 00:47:40;;;;;;;;;;;24.70;59.40;;;;;;4388595;32;44263;-80
2022/07/19 00:50:07;;;;;;;;;;;24.70;59.50;;;;;;4389411;32;44191;-80
2022/07/19 00:52:35;;;;;;;;;;;24.70;59.60;;;;;;4388342;32;43898;-80
2022/07/19 00:55:03;;;;;;;;;;;24.70;59.80;;;;;;4389707;32;42883;-79
2022/07/19 00:57:33;;;;;;;;;;;24.70;59.50;;;;;;4389358;32;44257;-80
2022/07/19 01:00:00;;;;;;;;;;;24.60;59.90;;;;;;4388407;32;43742;-80
2022/07/19 01:02:32;;;;;;;;;;;24.60;59.90;;;;;;4388181;32;43718;-80
2022/07/19 01:05:02;;;;;;;;;;;24.60;60.00;;;;;;4389898;32;42956;-80
2022/07/19 01:07:29;;;;;;;;;;;24.60;60.00;;;;;;4388545;32;44184;-80
2022/07/19 01:09:56;;;;;;;;;;;24.60;60.30;;;;;;4389432;32;42430;-81
2022/07/19 01:12:23;;;;;;;;;;;24.60;60.40;;;;;;4389760;32;43732;-80
2022/07/19 01:14:54;;;;;;;;;;;24.60;60.30;;;;;;4388057;32;42597;-80
2022/07/19 01:17:21;;;;;;;;;;;24.50;60.60;;;;;;4389807;32;43739;-80
2022/07/19 01:19:49;;;;;;;;;;;24.50;60.60;;;;;;4391540;32;44266;-80
2022/07/19 01:22:16;;;;;;;;;;;24.50;60.10;;;;;;4390369;32;44234;-80
2022/07/19 01:24:45;;;;;;;;;;;24.50;60.00;;;;;;4392037;32;45448;-81
2022/07/19 01:27:12;;;;;;;;;;;24.50;60.00;;;;;;4392331;32;42640;-80
2022/07/19 01:29:39;;;;;;;;;;;24.50;60.20;;;;;;4391978;32;43027;-80
2022/07/19 01:32:06;;;;;;;;;;;24.50;60.10;;;;;;4392198;32;44026;-80
2022/07/19 01:34:33;;;;;;;;;;;24.40;60.20;;;;;;4391772;32;44086;-79
2022/07/19 01:37:00;;;;;;;;;;;24.40;60.10;;;;;;4390794;32;42091;-79
2022/07/19 01:39:27;;;;;;;;;;;24.40;60.30;;;;;;4391926;32;43587;-77
2022/07/19 01:41:54;;;;;;;;;;;24.40;60.60;;;;;;4391208;32;44938;-78
2022/07/19 01:44:22;;;;;;;;;;;24.40;60.80;;;;;;4392012;32;43040;-79
2022/07/19 01:46:49;;;;;;;;;;;24.40;61.00;;;;;;4392220;32;43078;-79
2022/07/19 01:49:16;;;;;;;;;;;24.40;60.90;;;;;;4391650;32;43927;-79
2022/07/19 01:51:43;;;;;;;;;;;24.40;61.10;;;;;;4391692;32;43678;-79
2022/07/19 01:54:13;;;;;;;;;;;24.40;61.00;;;;;;4390464;32;42523;-77
2022/07/19 01:56:43;;;;;;;;;;;24.30;60.80;;;;;;4390444;32;43030;-78
2022/07/19 01:59:10;;;;;;;;;;;24.30;60.90;;;;;;4390994;32;43698;-78
2022/07/19 02:01:40;;;;;;;;;;;24.20;60.80;;;;;;4391596;32;45650;-79
2022/07/19 02:04:07;;;;;;;;;;;24.20;61.10;;;;;;4390899;32;43705;-79
2022/07/19 02:06:34;;;;;;;;;;;24.30;61.10;;;;;;4390676;32;43717;-79
2022/07/19 02:09:01;;;;;;;;;;;24.30;61.40;;;;;;4361977;32;43661;-79
2022/07/19 02:11:34;;;;;;;;;;;24.30;61.30;;;;;;4361568;32;43109;-79
2022/07/19 02:14:06;;;;;;;;;;;24.30;61.30;;;;;;4361334;32;42549;-79
2022/07/19 02:16:37;;;;;;;;;;;24.30;60.90;;;;;;4361568;32;42173;-79
2022/07/19 02:19:05;;;;;;;;;;;24.30;61.30;;;;;;4360161;32;44011;-79
2022/07/19 02:21:41;;;;;;;;;;;24.30;61.20;;;;;;4361401;32;42606;-79
2022/07/19 02:24:08;;;;;;;;;;;24.30;61.00;;;;;;4360732;32;43204;-79
2022/07/19 02:26:36;;;;;;;;;;;24.30;60.90;;;;;;4361513;32;43479;-78
2022/07/19 02:29:05;;;;;;;;;;;24.30;61.20;;;;;;4361093;32;43652;-79
2022/07/19 02:31:32;;;;;;;;;;;24.30;61.00;;;;;;4360689;32;44179;-79
2022/07/19 02:34:00;;;;;;;;;;;24.20;60.90;;;;;;4361227;32;42433;-79
2022/07/19 02:36:27;;;;;;;;;;;24.20;60.80;;;;;;4360348;32;43733;-79
2022/07/19 02:38:55;;;;;;;;;;;24.20;61.00;;;;;;4361321;32;42376;-79
2022/07/19 02:41:25;;;;;;;;;;;24.20;60.90;;;;;;4361337;32;42913;-79
2022/07/19 02:43:55;;;;;;;;;;;24.20;61.00;;;;;;4361358;32;43683;-79
2022/07/19 02:46:22;;;;;;;;;;;24.20;61.00;;;;;;4361017;32;43730;-79
2022/07/19 02:48:49;;;;;;;;;;;24.20;61.00;;;;;;4360862;32;43478;-79
2022/07/19 02:51:19;;;;;;;;;;;24.10;60.90;;;;;;4361392;32;43073;-79
2022/07/19 02:53:49;;;;;;;;;;;24.10;60.80;;;;;;4359645;32;44180;-79
2022/07/19 02:56:16;;;;;;;;;;;24.10;61.10;;;;;;4360056;32;43164;-79
2022/07/19 02:58:43;;;;;;;;;;;24.10;60.90;;;;;;4359933;32;43680;-79
2022/07/19 03:01:13;;;;;;;;;;;24.10;60.90;;;;;;4360805;32;20001;-79
2022/07/19 03:03:50;;;;;;;;;;;24.10;60.90;;;;;;4360762;32;42914;-79
2022/07/19 03:06:18;;;;;;;;;;;24.10;61.00;;;;;;4361177;32;43691;-79
2022/07/19 03:08:45;;;;;;;;;;;24.10;60.80;;;;;;4360422;32;44327;-79
2022/07/19 03:11:15;;;;;;;;;;;24.10;60.90;;;;;;4359995;32;43907;-79
2022/07/19 03:13:42;;;;;;;;;;;24.10;61.10;;;;;;4359566;32;43040;-79
2022/07/19 03:16:09;;;;;;;;;;;24.10;61.30;;;;;;4360768;32;43712;-79
2022/07/19 03:18:40;;;;;;;;;;;24.10;61.20;;;;;;4359869;32;43723;-79
2022/07/19 03:21:07;;;;;;;;;;;24.10;61.40;;;;;;4360844;32;45851;-81
2022/07/19 03:23:35;;;;;;;;;;;24.10;61.20;;;;;;4359858;32;43722;-81
2022/07/19 03:26:03;;;;;;;;;;;24.10;60.90;;;;;;4360871;32;44191;-85
2022/07/19 03:28:33;;;;;;;;;;;24.10;60.30;;;;;;4360736;32;44900;-77
2022/07/19 03:31:00;;;;;;;;;;;24.10;60.10;;;;;;4360573;32;43010;-83
2022/07/19 03:33:28;;;;;;;;;;;24.10;59.90;;;;;;4360544;32;43777;-75
2022/07/19 03:35:55;;;;;;;;;;;24.10;59.80;;;;;;4360546;32;43649;-81
2022/07/19 03:38:25;;;;;;;;;;;24.10;59.80;;;;;;4359329;32;43829;-81
2022/07/19 03:40:52;;;;;;;;;;;24.10;59.60;;;;;;4359218;32;44264;-80
2022/07/19 03:43:23;;;;;;;;;;;24.20;59.60;;;;;;4358874;32;42996;-79
2022/07/19 03:45:50;;;;;;;;;;;24.10;59.40;;;;;;4360108;32;43188;-80
2022/07/19 03:48:17;;;;;;;;;;;24.20;59.30;;;;;;4360532;32;43732;-80
2022/07/19 03:50:44;;;;;;;;;;;24.20;59.80;;;;;;4360210;32;43449;-79
2022/07/19 03:53:12;;;;;;;;;;;24.20;59.50;;;;;;4359948;32;43891;-79
2022/07/19 03:55:40;;;;;;;;;;;24.20;59.70;;;;;;4358731;32;43632;-79
2022/07/19 03:58:09;;;;;;;;;;;24.20;59.80;;;;;;4360041;32;43680;-79
2022/07/19 04:00:36;;;;;;;;;;;24.20;60.30;;;;;;4360350;32;43894;-79
2022/07/19 04:03:03;;;;;;;;;;;24.20;60.30;;;;;;4359687;32;43251;-80
2022/07/19 04:05:31;;;;;;;;;;;24.20;60.70;;;;;;4358754;32;42446;-81
2022/07/19 04:07:58;;;;;;;;;;;24.20;59.90;;;;;;4359794;32;44073;-80
2022/07/19 04:10:25;;;;;;;;;;;24.20;59.70;;;;;;4359890;32;43616;-79
2022/07/19 04:12:52;;;;;;;;;;;24.20;60.00;;;;;;4360020;32;43267;-79
2022/07/19 04:15:19;;;;;;;;;;;24.20;60.10;;;;;;4360029;32;42673;-79
2022/07/19 04:17:49;;;;;;;;;;;24.20;60.00;;;;;;4358596;32;43400;-79
2022/07/19 04:20:16;;;;;;;;;;;24.20;60.30;;;;;;4358685;32;42889;-79
2022/07/19 04:22:43;;;;;;;;;;;24.20;60.60;;;;;;4359996;32;43037;-79
2022/07/19 04:25:11;;;;;;;;;;;24.20;60.60;;;;;;4360033;32;43589;-79
2022/07/19 04:27:38;;;;;;;;;;;24.20;60.40;;;;;;4359685;32;42916;-79
2022/07/19 04:30:05;;;;;;;;;;;24.10;60.50;;;;;;4359695;32;42855;-79
2022/07/19 04:32:38;;;;;;;;;;;24.10;60.50;;;;;;4360178;33;43014;-79
2022/07/19 04:35:07;;;;;;;;;;;24.10;60.50;;;;;;4359979;33;43835;-79
2022/07/19 04:37:34;;;;;;;;;;;24.10;60.40;;;;;;4359733;33;43141;-79
2022/07/19 04:40:01;;;;;;;;;;;24.10;60.30;;;;;;4359448;33;43967;-79
2022/07/19 04:42:30;;;;;;;;;;;24.10;60.20;;;;;;4360117;33;43078;-80
2022/07/19 04:44:57;;;;;;;;;;;24.10;60.60;;;;;;4364298;32;43108;-79
2022/07/19 04:47:27;;;;;;;;;;;24.10;60.30;;;;;;4390046;32;44239;-79
2022/07/19 04:49:54;;;;;;;;;;;24.10;60.30;;;;;;4389619;32;42812;-79
2022/07/19 04:52:21;;;;;;;;;;;24.10;60.10;;;;;;4389985;32;43101;-79
2022/07/19 04:54:54;;;;;;;;;;;24.10;60.50;;;;;;4391702;32;42536;-80
2022/07/19 04:57:21;;;;;;;;;;;24.10;61.00;;;;;;4392819;32;44046;-80
2022/07/19 04:59:51;;;;;;;;;;;24.10;60.90;;;;;;4392461;32;42844;-80
2022/07/19 05:02:26;;;;;;;;;;;24.10;61.30;;;;;;4392511;32;31521;-79
2022/07/19 05:04:53;;;;;;;;;;;24.10;60.90;;;;;;4379332;32;43936;-79
2022/07/19 05:07:22;;;;;;;;;;;24.10;61.80;;;;;;4392496;32;43265;-79
2022/07/19 05:09:49;;;;;;;;;;;24.10;61.70;;;;;;4392634;32;43040;-79
2022/07/19 05:12:20;;;;;;;;;;;24.10;62.00;;;;;;4392802;32;30090;-79
2022/07/19 05:14:48;;;;;;;;;;;24.10;61.60;;;;;;4378604;32;42594;-82
2022/07/19 05:17:15;;;;;;;;;;;24.20;61.80;;;;;;4391446;32;43598;-79
2022/07/19 05:19:44;;;;;;;;;;;24.20;61.10;;;;;;4378489;32;42963;-79
2022/07/19 05:22:14;;;;;;;;;;;24.10;60.90;;;;;;4392365;32;42883;-80
2022/07/19 05:24:41;;;;;;;;;;;24.10;60.40;;;;;;4391963;32;42945;-81
2022/07/19 05:27:08;;;;;;;;;;;24.20;60.60;;;;;;4392499;32;43199;-83
2022/07/19 05:29:38;;;;;;;;;;;24.20;60.40;;;;;;4391720;32;44327;-83
2022/07/19 05:32:07;;;;;;;;;;;24.20;60.30;;;;;;4391797;32;42904;-78
2022/07/19 05:34:34;;;;;;;;;;;24.20;60.20;;;;;;4392702;32;20004;-77
2022/07/19 05:37:01;;;;;;;;;;;24.20;59.70;;;;;;4391720;32;42343;-77
2022/07/19 05:39:31;;;;;;;;;;;24.20;59.80;;;;;;4391611;32;43611;-85
2022/07/19 05:41:58;;;;;;;;;;;24.30;59.40;;;;;;4377987;32;44271;-76
2022/07/19 05:44:25;;;;;;;;;;;24.30;59.90;;;;;;4392087;32;22893;-82
2022/07/19 05:46:53;;;;;;;;;;;24.30;59.90;;;;;;4391729;32;42886;-76
2022/07/19 05:49:20;;;;;;;;;;;24.30;59.50;;;;;;4391544;32;43672;-77
2022/07/19 05:51:47;;;;;;;;;;;24.40;59.10;;;;;;4391655;32;43769;-79
2022/07/19 05:54:17;;;;;;;;;;;24.30;59.10;;;;;;4391488;32;42934;-75
2022/07/19 05:56:44;;;;;;;;;;;24.40;59.00;;;;;;4391355;32;43012;-81
2022/07/19 05:59:12;;;;;;;;;;;24.40;59.00;;;;;;4391719;32;45629;-81
2022/07/19 06:01:45;;;;;;;;;;;24.40;59.00;;;;;;4377173;32;44589;-80
2022/07/19 06:04:12;;;;;;;;;;;24.40;59.10;;;;;;4378145;32;44394;-79
2022/07/19 06:06:40;;;;;;;;;;;24.50;58.90;;;;;;4391720;32;20052;-79
2022/07/19 06:09:07;;;;;;;;;;;24.50;58.80;;;;;;4392169;32;28199;-79
2022/07/19 06:11:37;;;;;;;;;;;24.50;59.10;;;;;;4377839;32;42899;-83
2022/07/19 06:14:08;;;;;;;;;;;24.50;58.50;;;;;;4391207;32;43039;-77
2022/07/19 06:16:42;;;;;;;;;;;24.50;58.50;;;;;;4391640;32;43036;-80
2022/07/19 06:19:11;;;;;;;;;;;24.60;58.80;;;;;;4391577;32;43047;-79
2022/07/19 06:21:38;;;;;;;;;;;24.60;58.80;;;;;;4391777;32;43732;-80
2022/07/19 06:24:08;;;;;;;;;;;24.60;59.00;;;;;;4378135;32;43684;-80
2022/07/19 06:26:35;;;;;;;;;;;24.60;58.90;;;;;;4390979;32;43693;-80
2022/07/19 06:29:02;;;;;;;;;;;24.60;58.80;;;;;;4377499;32;43494;-81
2022/07/19 06:31:30;;;;;;;;;;;24.60;58.80;;;;;;4377412;32;43936;-81
2022/07/19 06:34:00;;;;;;;;;;;24.60;59.00;;;;;;4390847;32;42901;-77
2022/07/19 06:36:32;;;;;;;;;;;24.70;59.30;;;;;;4377314;32;42578;-78
2022/07/19 06:38:59;;;;;;;;;;;24.70;58.70;;;;;;4377598;32;43699;-75
2022/07/19 06:41:30;;;;;;;;;;;24.70;58.30;;;;;;4390756;32;43660;-74
2022/07/19 06:44:03;;;;;;;;;;;24.70;58.70;;;;;;4377497;32;42607;-83
2022/07/19 06:46:30;;;;;;;;;;;24.70;58.30;;;;;;4377827;32;44480;-82
2022/07/19 06:48:57;;;;;;;;;;;24.80;58.30;;;;;;4391230;32;43860;-78
2022/07/19 06:51:24;;;;;;;;;;;24.80;58.50;;;;;;4390435;32;43043;-81
2022/07/19 06:53:54;;;;;;;;;;;24.80;58.00;;;;;;4390816;32;41745;-83
2022/07/19 06:56:24;;;;;;;;;;;24.90;57.70;;;;;;4390735;32;42978;-81
2022/07/19 06:58:54;;;;;;;;;;;24.80;58.00;;;;;;4377436;32;42989;-84
2022/07/19 07:01:21;;;;;;;;;;;24.90;57.90;;;;;;4390231;32;43787;-76
2022/07/19 07:03:48;;;;;;;;;;;25.00;57.80;;;;;;4391187;32;43629;-89
2022/07/19 07:06:16;;;;;;;;;;;25.00;57.30;;;;;;4377278;32;43693;-76
2022/07/19 07:08:43;;;;;;;;;;;25.00;57.40;;;;;;4390754;32;42895;-72
2022/07/19 07:11:10;;;;;;;;;;;25.10;57.60;;;;;;4377506;32;42907;-78
2022/07/19 07:13:38;;;;;;;;;;;25.10;57.10;;;;;;4391088;32;42900;-77
2022/07/19 07:16:06;;;;;;;;;;;25.10;57.30;;;;;;4390300;32;42690;-77
2022/07/19 07:18:35;;;;;;;;;;;25.10;57.30;;;;;;4377265;32;43104;-77
2022/07/19 07:21:03;;;;;;;;;;;25.20;57.40;;;;;;4390123;32;44466;-77
2022/07/19 07:23:30;;;;;;;;;;;25.20;57.20;;;;;;4389577;32;43032;-72
2022/07/19 07:26:00;;;;;;;;;;;25.20;56.60;;;;;;4390539;32;43589;-79
2022/07/19 07:28:27;;;;;;;;;;;25.30;57.30;;;;;;4376864;32;43133;-73
2022/07/19 07:30:54;;;;;;;;;;;25.30;57.20;;;;;;4390241;32;42614;-75
2022/07/19 07:33:21;;;;;;;;;;;25.30;57.10;;;;;;4376957;32;43107;-77
2022/07/19 07:35:49;;;;;;;;;;;25.40;57.00;;;;;;4376695;32;42899;-78
2022/07/19 07:38:16;;;;;;;;;;;25.40;56.70;;;;;;4391261;32;20007;-78
2022/07/19 07:40:43;;;;;;;;;;;25.40;56.70;;;;;;4376998;32;43486;-78
2022/07/19 07:43:10;;;;;;;;;;;25.40;56.30;;;;;;4390241;32;43733;-76
2022/07/19 07:45:37;;;;;;;;;;;25.40;56.10;;;;;;4390023;32;42855;-79
2022/07/19 07:48:08;;;;;;;;;;;25.50;55.80;;;;;;4376927;32;43217;-74
2022/07/19 07:50:35;;;;;;;;;;;25.50;56.50;;;;;;4376417;32;43804;-77
2022/07/19 07:53:04;;;;;;;;;;;25.50;55.90;;;;;;4376819;32;42592;-79
2022/07/19 07:55:37;;;;;;;;;;;25.60;55.90;;;;;;4390020;32;43447;-76
2022/07/19 07:58:04;;;;;;;;;;;25.60;55.70;;;;;;4390199;32;42613;-76
2022/07/19 08:00:31;;;;;;;;;;;25.60;56.00;;;;;;4390047;32;42975;-73
2022/07/19 08:03:02;;;;;;;;;;;25.60;55.70;;;;;;4383906;32;42945;-76
2022/07/19 08:05:31;;;;;;;;;;;25.60;55.90;;;;;;4390225;32;43060;-78
2022/07/19 08:08:05;;;;;;;;;;;25.60;55.40;;;;;;4388990;32;42130;-75
2022/07/19 08:10:38;;;;;;;;;;;25.70;55.70;;;;;;4389674;32;44933;-76
2022/07/19 08:13:05;;;;;;;;;;;25.80;55.30;;;;;;4390359;32;43487;-72
2022/07/19 08:15:43;;;;;;;;;;;25.80;55.10;;;;;;4388948;32;44179;-73
2022/07/19 08:18:10;;;;;;;;;;;25.90;54.50;;;;;;4388884;32;41900;-76
2022/07/19 08:20:37;;;;;;;;;;;25.90;55.00;;;;;;4389178;32;45264;-75
2022/07/19 08:23:04;;;;;;;;;;;26.00;55.40;;;;;;4388753;32;43836;-71
2022/07/19 08:25:32;;;;;;;;;;;26.00;54.70;;;;;;4389864;32;43687;-76
2022/07/19 08:28:02;;;;;;;;;;;26.00;55.30;;;;;;4387648;32;43260;-74
2022/07/19 08:30:29;;;;;;;;;;;26.00;54.90;;;;;;4388431;32;43739;-77
2022/07/19 08:33:16;;;;;;;;;;;26.00;54.40;;;;;;4390129;32;45312;-75
2022/07/19 08:35:43;;;;;;;;;;;26.10;54.30;;;;;;4390165;32;44199;-73
2022/07/19 08:38:10;;;;;;;;;;;26.20;54.10;;;;;;4388434;32;42956;-74
2022/07/19 08:40:40;;;;;;;;;;;26.20;54.60;;;;;;4388282;32;42883;-76
2022/07/19 08:43:11;;;;;;;;;;;26.20;54.20;;;;;;4389191;32;43629;-73
2022/07/19 08:45:41;;;;;;;;;;;26.20;54.40;;;;;;4389803;32;42980;-74
2022/07/19 08:48:08;;;;;;;;;;;26.30;54.20;;;;;;4388104;32;43449;-77
2022/07/19 08:50:35;;;;;;;;;;;26.30;55.00;;;;;;4389799;32;43258;-76
2022/07/19 08:53:03;;;;;;;;;;;26.30;54.20;;;;;;4389090;32;42882;-76
2022/07/19 08:55:30;;;;;;;;;;;26.30;54.90;;;;;;4389524;32;41812;-73
2022/07/19 08:57:57;;;;;;;;;;;26.40;54.40;;;;;;4389715;32;43625;-72
2022/07/19 09:00:25;;;;;;;;;;;26.40;54.60;;;;;;4389561;32;43762;-72
2022/07/19 09:02:53;;;;;;;;;;;26.40;54.70;;;;;;4389370;32;43486;-75
2022/07/19 09:05:23;;;;;;;;;;;26.40;54.80;;;;;;4388200;32;43054;-76
2022/07/19 09:08:09;;;;;;;;;;;26.40;55.20;;;;;;4389046;32;45410;-75
2022/07/19 09:10:39;;;;;;;;;;;26.50;55.60;;;;;;4390041;32;22745;-77
2022/07/19 09:13:24;;;;;;;;;;;26.50;55.70;;;;;;4388326;32;43113;-74
2022/07/19 09:15:54;;;;;;;;;;;26.50;54.80;;;;;;4389249;32;42070;-75
2022/07/19 09:18:24;;;;;;;;;;;26.50;55.40;;;;;;4389476;32;45200;-76
2022/07/19 09:20:54;;;;;;;;;;;26.50;54.80;;;;;;4388367;32;43935;-75
2022/07/19 09:23:21;;;;;;;;;;;26.60;54.60;;;;;;4388408;32;43651;-75
2022/07/19 09:25:50;;;;;;;;;;;26.60;55.00;;;;;;4388478;32;43187;-76
2022/07/19 09:28:17;;;;;;;;;;;26.60;54.50;;;;;;4388889;32;43100;-75
2022/07/19 09:30:46;;;;;;;;;;;26.60;54.20;;;;;;4389446;32;43188;-76
2022/07/19 09:33:16;;;;;;;;;;;26.60;54.70;;;;;;4388888;32;43307;-78
2022/07/19 09:35:56;;;;;;;;;;;26.70;55.10;;;;;;4388842;32;43508;-75
2022/07/19 09:38:30;;;;;;;;;;;26.70;54.40;;;;;;4389185;32;42842;-77
2022/07/19 09:41:06;;;;;;;;;;;26.70;54.30;;;;;;4390133;32;20038;-72
2022/07/19 09:43:51;;;;;;;;;;;26.80;53.60;;;;;;4392237;32;43714;-75
2022/07/19 09:46:28;;;;;;;;;;;26.80;54.30;;;;;;4391043;32;43736;-78
2022/07/19 09:49:15;;;;;;;;;;;26.80;53.80;;;;;;4390506;32;43850;-75
2022/07/19 09:51:43;;;;;;;;;;;26.90;53.80;;;;;;4391885;32;42142;-75
2022/07/19 09:54:12;;;;;;;;;;;26.90;54.20;;;;;;4390930;32;44143;-74
2022/07/19 09:56:42;;;;;;;;;;;26.90;53.30;;;;;;4391926;32;44346;-75
2022/07/19 09:59:09;;;;;;;;;;;27.00;54.10;;;;;;4391634;32;43415;-76
2022/07/19 10:01:37;;;;;;;;;;;27.00;53.80;;;;;;4390472;32;44191;-77
2022/07/19 10:04:08;;;;;;;;;;;27.00;52.30;;;;;;4390957;32;44947;-76
2022/07/19 10:06:36;;;;;;;;;;;27.10;53.80;;;;;;4390401;32;43589;-75
2022/07/19 10:09:04;;;;;;;;;;;27.20;53.30;;;;;;4391382;32;43664;-74
2022/07/19 10:11:32;;;;;;;;;;;27.20;53.30;;;;;;4391539;32;45805;-75
2022/07/19 10:13:59;;;;;;;;;;;27.20;53.40;;;;;;4390462;32;43540;-74
2022/07/19 10:16:43;;;;;;;;;;;27.20;53.00;;;;;;4391676;32;43702;-76
2022/07/19 10:19:37;;;;;;;;;;;27.30;54.00;;;;;;4391363;32;42697;-75
2022/07/19 10:22:08;;;;;;;;;;;27.30;53.20;;;;;;4388264;32;43340;-75
2022/07/19 10:24:46;;;;;;;;;;;27.30;52.90;;;;;;4391554;32;42261;-74
2022/07/19 10:27:14;;;;;;;;;;;27.30;52.60;;;;;;4391137;32;42883;-75
2022/07/19 10:29:41;;;;;;;;;;;27.40;52.50;;;;;;4390954;32;43027;-73
2022/07/19 10:32:10;;;;;;;;;;;27.40;52.00;;;;;;4390368;32;43759;-75
2022/07/19 10:34:37;;;;;;;;;;;27.40;52.60;;;;;;4391149;32;43482;-72
2022/07/19 10:37:05;;;;;;;;;;;27.40;52.40;;;;;;4391284;32;43386;-75
2022/07/19 10:39:36;;;;;;;;;;;27.50;52.00;;;;;;4390997;32;43237;-75
2022/07/19 10:42:18;;;;;;;;;;;27.50;52.30;;;;;;4392808;32;20455;-72
2022/07/19 10:44:57;;;;;;;;;;;27.60;52.60;;;;;;4390821;32;42467;-75
2022/07/19 10:47:45;;;;;;;;;;;27.60;51.80;;;;;;4391260;32;43278;-74
2022/07/19 10:50:18;;;;;;;;;;;27.70;52.30;;;;;;4378685;32;43803;-72
2022/07/19 10:52:45;;;;;;;;;;;27.70;51.90;;;;;;4390173;32;42815;-77
2022/07/19 10:55:15;;;;;;;;;;;27.70;52.50;;;;;;4390888;32;43498;-77
2022/07/19 10:57:43;;;;;;;;;;;27.80;52.40;;;;;;4390386;32;43718;-75
2022/07/19 11:00:16;;;;;;;;;;;27.80;52.20;;;;;;4390527;32;43350;-75
2022/07/19 11:02:44;;;;;;;;;;;27.80;51.30;;;;;;4390665;32;43479;-74
2022/07/19 11:05:25;;;;;;;;;;;27.80;51.40;;;;;;4390830;32;42908;-75
2022/07/19 11:07:55;;;;;;;;;;;27.80;51.90;;;;;;4390842;32;44166;-78
2022/07/19 11:10:22;;;;;;;;;;;27.80;51.70;;;;;;4390354;32;42275;-76
2022/07/19 11:12:50;;;;;;;;;;;27.90;50.90;;;;;;4390148;32;20001;-76
2022/07/19 11:15:17;;;;;;;;;;;27.90;51.50;;;;;;4390170;32;42643;-74
2022/07/19 11:17:56;;;;;;;;;;;27.90;51.00;;;;;;4390797;32;43104;-74
2022/07/19 11:20:30;;;;;;;;;;;28.00;50.30;;;;;;4389886;32;43038;-74
2022/07/19 11:22:58;;;;;;;;;;;28.00;50.30;;;;;;4390462;32;43691;-74
2022/07/19 11:25:29;;;;;;;;;;;28.00;50.90;;;;;;4390126;32;43030;-74
2022/07/19 11:27:57;;;;;;;;;;;28.00;50.70;;;;;;4390776;32;43048;-74
2022/07/19 11:30:25;;;;;;;;;;;28.10;50.10;;;;;;4390603;32;43238;-74
2022/07/19 11:32:59;;;;;;;;;;;28.10;50.60;;;;;;4390505;32;43268;-76
2022/07/19 11:35:27;;;;;;;;;;;28.20;50.20;;;;;;4390152;32;43541;-76
2022/07/19 11:37:55;;;;;;;;;;;28.20;50.30;;;;;;4390022;32;42192;-74
2022/07/19 11:40:23;;;;;;;;;;;28.30;49.50;;;;;;4390095;32;43782;-75
2022/07/19 11:42:51;;;;;;;;;;;28.30;50.20;;;;;;4390799;32;31172;-74
2022/07/19 11:45:48;;;;;;;;;;;28.40;49.60;;;;;;4389670;32;45336;-75
2022/07/19 11:48:29;;;;;;;;;;;28.40;49.40;;;;;;4389469;32;43183;-75
2022/07/19 11:50:59;;;;;;;;;;;28.40;48.80;;;;;;4390244;32;44674;-75
2022/07/19 11:53:26;;;;;;;;;;;28.40;49.60;;;;;;4390343;32;43145;-74
2022/07/19 11:55:53;;;;;;;;;;;28.40;49.60;;;;;;4389856;32;42942;-74
2022/07/19 11:58:20;;;;;;;;;;;28.50;48.90;;;;;;4390325;32;43678;-76
2022/07/19 12:00:48;;;;;;;;;;;28.50;49.00;;;;;;4388575;32;45768;-74
2022/07/19 12:03:16;;;;;;;;;;;28.40;48.20;;;;;;4387943;32;42902;-74
2022/07/19 12:06:01;;;;;;;;;;;28.50;48.60;;;;;;4388695;32;42794;-74
2022/07/19 12:08:40;;;;;;;;;;;28.40;48.40;;;;;;4390236;32;42545;-76
2022/07/19 12:11:18;;;;;;;;;;;28.50;48.50;;;;;;4389303;32;43474;-74
2022/07/19 12:13:45;;;;;;;;;;;28.50;47.80;;;;;;4388977;32;42929;-74
2022/07/19 12:16:16;;;;;;;;;;;28.50;48.00;;;;;;4390209;32;43713;-73
2022/07/19 12:18:45;;;;;;;;;;;28.60;48.10;;;;;;4388952;32;42848;-74
2022/07/19 12:21:24;;;;;;;;;;;28.60;48.30;;;;;;4389702;32;43502;-73
2022/07/19 12:24:10;;;;;;;;;;;28.60;47.40;;;;;;4390237;32;43948;-75
2022/07/19 12:26:41;;;;;;;;;;;28.70;46.90;;;;;;4389657;32;43806;-73
2022/07/19 12:29:20;;;;;;;;;;;28.70;47.60;;;;;;4390338;32;43844;-76
2022/07/19 12:31:48;;;;;;;;;;;28.80;47.70;;;;;;4390252;32;45684;-77
2022/07/19 12:34:16;;;;;;;;;;;28.80;47.90;;;;;;4389623;32;43235;-73
2022/07/19 12:36:43;;;;;;;;;;;28.80;47.20;;;;;;4389770;32;44200;-75
2022/07/19 12:39:17;;;;;;;;;;;28.80;47.40;;;;;;4389967;32;44384;-75
2022/07/19 12:41:54;;;;;;;;;;;28.80;48.50;;;;;;4388287;32;44183;-75
2022/07/19 12:44:21;;;;;;;;;;;28.80;46.90;;;;;;4389483;32;43663;-76
2022/07/19 12:46:48;;;;;;;;;;;28.90;47.50;;;;;;4388928;32;43477;-75
2022/07/19 12:49:46;;;;;;;;;;;28.90;47.00;;;;;;4389848;32;46195;-76
2022/07/19 12:52:13;;;;;;;;;;;29.00;46.40;;;;;;4389734;32;44028;-79
2022/07/19 12:54:40;;;;;;;;;;;29.00;47.80;;;;;;4389484;32;43606;-72
2022/07/19 12:57:07;;;;;;;;;;;29.10;46.60;;;;;;4388482;32;43595;-73
2022/07/19 12:59:40;;;;;;;;;;;29.10;46.60;;;;;;4389284;32;42899;-72
2022/07/19 13:02:09;;;;;;;;;;;29.10;46.30;;;;;;4389386;32;43293;-72
2022/07/19 13:04:37;;;;;;;;;;;29.10;46.10;;;;;;4389678;32;42021;-78
2022/07/19 13:07:05;;;;;;;;;;;29.20;46.10;;;;;;4389277;32;43037;-72
2022/07/19 13:09:35;;;;;;;;;;;29.30;46.00;;;;;;4389326;32;43750;-72
2022/07/19 13:12:04;;;;;;;;;;;29.30;46.30;;;;;;4389395;32;43782;-72
2022/07/19 13:14:31;;;;;;;;;;;29.40;45.70;;;;;;4388941;32;44453;-72
2022/07/19 13:16:59;;;;;;;;;;;29.40;45.10;;;;;;4392535;32;42514;-72
2022/07/19 13:19:26;;;;;;;;;;;29.40;45.30;;;;;;4391936;32;44259;-72
2022/07/19 13:21:53;;;;;;;;;;;29.50;43.50;;;;;;4392244;32;42850;-73
2022/07/19 13:24:20;;;;;;;;;;;29.50;45.30;;;;;;4392311;32;42836;-72
2022/07/19 13:27:07;;;;;;;;;;;29.60;44.00;;;;;;4392495;32;44724;-72
2022/07/19 13:29:36;;;;;;;;;;;29.60;44.70;;;;;;4391392;32;43715;-72
2022/07/19 13:32:04;;;;;;;;;;;29.60;44.10;;;;;;4391929;32;42901;-72
2022/07/19 13:34:33;;;;;;;;;;;29.70;43.30;;;;;;4392422;32;43975;-72
2022/07/19 13:37:00;;;;;;;;;;;29.70;41.90;;;;;;4391862;32;43363;-77
2022/07/19 13:39:27;;;;;;;;;;;29.80;42.50;;;;;;4390930;32;42647;-72
2022/07/19 13:41:54;;;;;;;;;;;29.90;43.50;;;;;;4390740;32;43795;-74
2022/07/19 13:44:21;;;;;;;;;;;30.00;43.10;;;;;;4391783;32;42849;-72
2022/07/19 13:46:48;;;;;;;;;;;30.00;43.20;;;;;;4391039;32;43014;-75
2022/07/19 13:49:17;;;;;;;;;;;30.00;43.70;;;;;;4391929;32;42875;-72
2022/07/19 13:51:44;;;;;;;;;;;30.00;43.70;;;;;;4392046;32;43195;-73
2022/07/19 13:54:12;;;;;;;;;;;30.00;42.40;;;;;;4392192;32;43027;-72
2022/07/19 13:56:40;;;;;;;;;;;30.00;42.50;;;;;;4391640;32;44175;-72
2022/07/19 13:59:07;;;;;;;;;;;30.00;43.90;;;;;;4391920;32;43055;-72
2022/07/19 14:01:34;;;;;;;;;;;30.00;43.00;;;;;;4391479;32;43746;-74
2022/07/19 14:04:12;;;;;;;;;;;30.00;44.60;;;;;;4392240;32;43738;-73
2022/07/19 14:06:48;;;;;;;;;;;30.00;43.40;;;;;;4390941;32;42141;-74
2022/07/19 14:09:16;;;;;;;;;;;30.10;43.60;;;;;;4391784;32;44788;-74
2022/07/19 14:11:44;;;;;;;;;;;30.10;43.30;;;;;;4391845;32;43024;-74
2022/07/19 14:14:12;;;;;;;;;;;30.10;42.70;;;;;;4391391;32;43923;-72
2022/07/19 14:16:40;;;;;;;;;;;30.10;42.40;;;;;;4391338;32;43057;-72
2022/07/19 14:19:08;;;;;;;;;;;30.10;41.70;;;;;;4391639;32;43747;-75
2022/07/19 14:21:35;;;;;;;;;;;30.20;41.70;;;;;;4390223;32;43491;-73
2022/07/19 14:24:03;;;;;;;;;;;30.30;41.10;;;;;;4390487;32;42116;-74
2022/07/19 14:26:30;;;;;;;;;;;30.40;41.10;;;;;;4389520;32;42851;-74
2022/07/19 14:28:57;;;;;;;;;;;30.50;41.70;;;;;;4391248;32;43917;-72